sensor_id;sensor_type;location;lat;lon;timestamp;temperature;humidity
2721;DHT22;1368;49.484;11.112;2022-12-16T00:01:49;0.40;99.90
2721;DHT22;1368;49.484;11.112;2022-12-16T00:04:15;0.60;99.90
2721;DHT22;1368;49.484;11.112;2022-12-16T00:06:42;0.90;99.90
2721;DHT22;1368;49.484;11.112;2022-12-16T00:09:07;1.00;99.90
2721;DHT22;1368;49.484;11.112;2022-12-16T00:11:33;0.60;99.90
2721;DHT22;1368;49.484;11.112;2022-12-16T00:13:59;1.10;99.90
2721;DHT22;1368;49.484;11.112;2022-12-16T00:16:24;1.00;99.90
2721;DHT22;1368;49.484;11.112;2022-12-16T00:18:50;1.00;99.90
2721;DHT22;1368;49.484;11.112;2022-12-16T00:21:16;0.80;99.90
2721;DHT22;1368;49.484;11.112;2022-12-16T00:23:44;0.70;99.90
2721;DHT22;1368;49.484;11.112;2022-12-16T00:26:11;0.70;99.90
2721;DHT22;1368;49.484;11.112;2022-12-16T00:28:37;0.90;99.90
2721;DHT22;1368;49.484;11.112;2022-12-16T00:31:05;0.90;99.90
2721;DHT22;1368;49.484;11.112;2022-12-16T00:33:30;0.60;99.90
2721;DHT22;1368;49.484;11.112;2022-12-16T00:35:57;0.60;99.90
2721;DHT22;1368;49.484;11.112;2022-12-16T00:38:24;0.70;99.90
2721;DHT22;1368;49.484;11.112;2022-12-16T00:40:50;0.80;99.90
2721;DHT22;1368;49.484;11.112;2022-12-16T00:43:15;0.90;99.90
2721;DHT22;1368;49.484;11.112;2022-12-16T00:45:41;0.80;99.90
2721;DHT22;1368;49.484;11.112;2022-12-16T00:48:07;0.90;99.90
2721;DHT22;1368;49.484;11.112;2022-12-16T00:50:34;0.90;99.90
2721;DHT22;1368;49.484;11.112;2022-12-16T00:52:59;1.10;99.90
2721;DHT22;1368;49.484;11.112;2022-12-16T00:55:25;1.00;99.90
2721;DHT22;1368;49.484;11.112;2022-12-16T00:57:51;1.00;99.90
2721;DHT22;1368;49.484;11.112;2022-12-16T01:00:17;1.10;99.90
2721;DHT22;1368;49.484;11.112;2022-12-16T01:02:48;1.20;99.90
2721;DHT22;1368;49.484;11.112;2022-12-16T01:05:15;1.20;99.90
2721;DHT22;1368;49.484;11.112;2022-12-16T01:07:42;1.10;99.90
2721;DHT22;1368;49.484;11.112;2022-12-16T01:10:08;1.10;99.90
2721;DHT22;1368;49.484;11.112;2022-12-16T01:12:34;1.10;99.90
2721;DHT22;1368;49.484;11.112;2022-12-16T01:15:00;1.10;99.90
2721;DHT22;1368;49.484;11.112;2022-12-16T01:17:26;1.00;99.90
2721;DHT22;1368;49.484;11.112;2022-12-16T01:19:53;0.90;99.90
2721;DHT22;1368;49.484;11.112;2022-12-16T01:22:19;1.10;99.90
2721;DHT22;1368;49.484;11.112;2022-12-16T01:24:45;1.20;99.90
2721;DHT22;1368;49.484;11.112;2022-12-16T01:27:11;1.20;99.90
2721;DHT22;1368;49.484;11.112;2022-12-16T01:29:37;1.10;99.90
2721;DHT22;1368;49.484;11.112;2022-12-16T01:32:03;1.00;99.90
2721;DHT22;1368;49.484;11.112;2022-12-16T01:34:29;1.00;99.90
2721;DHT22;1368;49.484;11.112;2022-12-16T01:36:55;1.00;99.90
2721;DHT22;1368;49.484;11.112;2022-12-16T01:39:20;1.10;99.90
2721;DHT22;1368;49.484;11.112;2022-12-16T01:41:46;1.00;99.90
2721;DHT22;1368;49.484;11.112;2022-12-16T01:44:18;1.00;99.90
2721;DHT22;1368;49.484;11.112;2022-12-16T01:46:56;1.00;99.90
2721;DHT22;1368;49.484;11.112;2022-12-16T01:49:35;0.90;99.90
2721;DHT22;1368;49.484;11.112;2022-12-16T01:52:04;0.70;99.90
2721;DHT22;1368;49.484;11.112;2022-12-16T01:54:39;0.80;99.90
2721;DHT22;1368;49.484;11.112;2022-12-16T01:57:10;0.80;99.90
2721;DHT22;1368;49.484;11.112;2022-12-16T01:59:39;0.80;99.90
2721;DHT22;1368;49.484;11.112;2022-12-16T02:02:06;0.90;99.90
2721;DHT22;1368;49.484;11.112;2022-12-16T02:04:32;0.90;99.90
2721;DHT22;1368;49.484;11.112;2022-12-16T02:06:57;0.90;99.90
2721;DHT22;1368;49.484;11.112;2022-12-16T02:09:24;0.80;99.90
2721;DHT22;1368;49.484;11.112;2022-12-16T02:15:03;0.80;99.90
2721;DHT22;1368;49.484;11.112;2022-12-16T02:17:57;0.80;99.90
2721;DHT22;1368;49.484;11.112;2022-12-16T02:26:30;1.30;99.90
2721;DHT22;1368;49.484;11.112;2022-12-16T02:34:35;0.70;99.90
2721;DHT22;1368;49.484;11.112;2022-12-16T02:40:00;0.80;99.90
2721;DHT22;1368;49.484;11.112;2022-12-16T02:42:31;0.60;99.90
2721;DHT22;1368;49.484;11.112;2022-12-16T02:45:06;0.60;99.90
2721;DHT22;1368;49.484;11.112;2022-12-16T02:47:35;0.50;99.90
2721;DHT22;1368;49.484;11.112;2022-12-16T02:50:01;0.30;99.90
2721;DHT22;1368;49.484;11.112;2022-12-16T02:52:29;0.30;99.90
2721;DHT22;1368;49.484;11.112;2022-12-16T02:55:01;0.50;99.90
2721;DHT22;1368;49.484;11.112;2022-12-16T02:57:53;0.40;99.90
2721;DHT22;1368;49.484;11.112;2022-12-16T03:00:23;0.20;99.90
2721;DHT22;1368;49.484;11.112;2022-12-16T03:02:58;0.40;99.90
2721;DHT22;1368;49.484;11.112;2022-12-16T03:05:33;0.20;99.90
2721;DHT22;1368;49.484;11.112;2022-12-16T03:08:03;0.40;99.90
2721;DHT22;1368;49.484;11.112;2022-12-16T03:10:36;0.40;99.90
2721;DHT22;1368;49.484;11.112;2022-12-16T03:13:04;0.40;99.90
2721;DHT22;1368;49.484;11.112;2022-12-16T03:15:33;0.50;99.90
2721;DHT22;1368;49.484;11.112;2022-12-16T03:18:00;0.70;99.90
2721;DHT22;1368;49.484;11.112;2022-12-16T03:20:36;0.80;99.90
2721;DHT22;1368;49.484;11.112;2022-12-16T03:23:09;0.90;99.90
2721;DHT22;1368;49.484;11.112;2022-12-16T03:25:40;0.90;99.90
2721;DHT22;1368;49.484;11.112;2022-12-16T03:31:06;1.00;99.90
2721;DHT22;1368;49.484;11.112;2022-12-16T03:33:46;0.90;99.90
2721;DHT22;1368;49.484;11.112;2022-12-16T03:36:20;1.10;99.90
2721;DHT22;1368;49.484;11.112;2022-12-16T03:38:47;1.20;99.90
2721;DHT22;1368;49.484;11.112;2022-12-16T03:41:15;1.20;99.90
2721;DHT22;1368;49.484;11.112;2022-12-16T03:43:41;1.30;99.90
2721;DHT22;1368;49.484;11.112;2022-12-16T03:46:08;1.30;99.90
2721;DHT22;1368;49.484;11.112;2022-12-16T03:48:34;1.40;99.90
2721;DHT22;1368;49.484;11.112;2022-12-16T03:51:00;1.50;99.90
2721;DHT22;1368;49.484;11.112;2022-12-16T03:53:26;1.50;99.90
2721;DHT22;1368;49.484;11.112;2022-12-16T03:55:53;1.40;99.90
2721;DHT22;1368;49.484;11.112;2022-12-16T03:58:19;1.30;99.90
2721;DHT22;1368;49.484;11.112;2022-12-16T04:00:45;1.00;99.90
2721;DHT22;1368;49.484;11.112;2022-12-16T04:03:10;0.70;99.90
2721;DHT22;1368;49.484;11.112;2022-12-16T04:05:36;0.80;99.90
2721;DHT22;1368;49.484;11.112;2022-12-16T04:08:01;0.70;99.90
2721;DHT22;1368;49.484;11.112;2022-12-16T04:10:27;0.90;99.90
2721;DHT22;1368;49.484;11.112;2022-12-16T04:13:11;0.40;99.90
2721;DHT22;1368;49.484;11.112;2022-12-16T04:15:55;0.50;99.90
2721;DHT22;1368;49.484;11.112;2022-12-16T04:18:53;0.50;99.90
2721;DHT22;1368;49.484;11.112;2022-12-16T04:21:38;0.60;99.90
2721;DHT22;1368;49.484;11.112;2022-12-16T04:24:23;0.70;99.90
2721;DHT22;1368;49.484;11.112;2022-12-16T04:26:51;0.80;99.90
2721;DHT22;1368;49.484;11.112;2022-12-16T04:29:35;0.60;99.90
2721;DHT22;1368;49.484;11.112;2022-12-16T04:32:21;0.70;99.90
2721;DHT22;1368;49.484;11.112;2022-12-16T04:34:47;0.80;99.90
2721;DHT22;1368;49.484;11.112;2022-12-16T04:37:13;0.80;99.90
2721;DHT22;1368;49.484;11.112;2022-12-16T04:39:57;0.90;99.90
2721;DHT22;1368;49.484;11.112;2022-12-16T04:42:41;1.10;99.90
2721;DHT22;1368;49.484;11.112;2022-12-16T04:45:25;1.10;99.90
2721;DHT22;1368;49.484;11.112;2022-12-16T04:48:09;0.80;99.90
2721;DHT22;1368;49.484;11.112;2022-12-16T04:50:53;0.70;99.90
2721;DHT22;1368;49.484;11.112;2022-12-16T04:53:38;0.70;99.90
2721;DHT22;1368;49.484;11.112;2022-12-16T04:56:22;0.70;99.90
2721;DHT22;1368;49.484;11.112;2022-12-16T04:59:06;0.60;99.90
2721;DHT22;1368;49.484;11.112;2022-12-16T05:01:50;0.70;99.90
2721;DHT22;1368;49.484;11.112;2022-12-16T05:04:34;0.60;99.90
2721;DHT22;1368;49.484;11.112;2022-12-16T05:07:19;0.60;99.90
2721;DHT22;1368;49.484;11.112;2022-12-16T05:10:04;0.60;99.90
2721;DHT22;1368;49.484;11.112;2022-12-16T05:12:48;0.70;99.90
2721;DHT22;1368;49.484;11.112;2022-12-16T05:15:32;0.50;99.90
2721;DHT22;1368;49.484;11.112;2022-12-16T05:18:16;0.40;99.90
2721;DHT22;1368;49.484;11.112;2022-12-16T05:21:01;0.60;99.90
2721;DHT22;1368;49.484;11.112;2022-12-16T05:23:46;0.60;99.90
2721;DHT22;1368;49.484;11.112;2022-12-16T05:26:31;0.80;99.90
2721;DHT22;1368;49.484;11.112;2022-12-16T05:29:32;0.90;99.90
2721;DHT22;1368;49.484;11.112;2022-12-16T05:32:16;1.10;99.90
2721;DHT22;1368;49.484;11.112;2022-12-16T05:35:00;0.60;99.90
2721;DHT22;1368;49.484;11.112;2022-12-16T05:37:44;0.70;99.90
2721;DHT22;1368;49.484;11.112;2022-12-16T05:40:28;0.80;99.90
2721;DHT22;1368;49.484;11.112;2022-12-16T05:43:13;0.70;99.90
2721;DHT22;1368;49.484;11.112;2022-12-16T05:45:57;0.80;99.90
2721;DHT22;1368;49.484;11.112;2022-12-16T05:48:41;0.60;99.90
2721;DHT22;1368;49.484;11.112;2022-12-16T05:51:26;0.50;99.90
2721;DHT22;1368;49.484;11.112;2022-12-16T05:54:09;0.60;99.90
2721;DHT22;1368;49.484;11.112;2022-12-16T05:56:53;0.70;99.90
2721;DHT22;1368;49.484;11.112;2022-12-16T05:59:37;0.70;99.90
2721;DHT22;1368;49.484;11.112;2022-12-16T06:02:22;0.70;99.90
2721;DHT22;1368;49.484;11.112;2022-12-16T06:05:06;0.40;99.90
2721;DHT22;1368;49.484;11.112;2022-12-16T06:07:52;0.50;99.90
2721;DHT22;1368;49.484;11.112;2022-12-16T06:10:36;0.60;99.90
2721;DHT22;1368;49.484;11.112;2022-12-16T06:13:20;0.50;99.90
2721;DHT22;1368;49.484;11.112;2022-12-16T06:16:05;0.60;99.90
2721;DHT22;1368;49.484;11.112;2022-12-16T06:18:49;0.70;99.90
2721;DHT22;1368;49.484;11.112;2022-12-16T06:21:33;0.80;99.90
2721;DHT22;1368;49.484;11.112;2022-12-16T06:24:17;0.80;99.90
2721;DHT22;1368;49.484;11.112;2022-12-16T06:27:02;0.90;99.90
2721;DHT22;1368;49.484;11.112;2022-12-16T06:29:46;1.00;99.90
2721;DHT22;1368;49.484;11.112;2022-12-16T06:32:30;1.10;99.90
2721;DHT22;1368;49.484;11.112;2022-12-16T06:35:15;1.10;99.90
2721;DHT22;1368;49.484;11.112;2022-12-16T06:37:59;1.20;99.90
2721;DHT22;1368;49.484;11.112;2022-12-16T06:40:43;1.20;99.90
2721;DHT22;1368;49.484;11.112;2022-12-16T06:43:27;1.30;99.90
2721;DHT22;1368;49.484;11.112;2022-12-16T06:46:11;1.20;99.90
2721;DHT22;1368;49.484;11.112;2022-12-16T06:48:55;1.20;99.90
2721;DHT22;1368;49.484;11.112;2022-12-16T06:51:40;1.20;99.90
2721;DHT22;1368;49.484;11.112;2022-12-16T06:54:24;1.10;99.90
2721;DHT22;1368;49.484;11.112;2022-12-16T06:57:08;1.00;99.90
2721;DHT22;1368;49.484;11.112;2022-12-16T06:59:52;0.80;99.90
2721;DHT22;1368;49.484;11.112;2022-12-16T07:02:36;0.70;99.90
2721;DHT22;1368;49.484;11.112;2022-12-16T07:05:20;0.50;99.90
2721;DHT22;1368;49.484;11.112;2022-12-16T07:08:05;0.40;99.90
2721;DHT22;1368;49.484;11.112;2022-12-16T07:10:49;0.20;99.90
2721;DHT22;1368;49.484;11.112;2022-12-16T07:13:33;0.20;99.90
2721;DHT22;1368;49.484;11.112;2022-12-16T07:16:19;0.40;99.90
2721;DHT22;1368;49.484;11.112;2022-12-16T07:19:03;0.40;99.90
2721;DHT22;1368;49.484;11.112;2022-12-16T07:21:47;0.30;99.90
2721;DHT22;1368;49.484;11.112;2022-12-16T07:24:31;0.30;99.90
2721;DHT22;1368;49.484;11.112;2022-12-16T07:27:15;0.40;99.90
2721;DHT22;1368;49.484;11.112;2022-12-16T07:29:59;0.50;99.90
2721;DHT22;1368;49.484;11.112;2022-12-16T07:32:43;0.60;99.90
2721;DHT22;1368;49.484;11.112;2022-12-16T07:35:27;0.80;99.90
2721;DHT22;1368;49.484;11.112;2022-12-16T07:38:12;0.70;99.90
2721;DHT22;1368;49.484;11.112;2022-12-16T07:40:56;0.60;99.90
2721;DHT22;1368;49.484;11.112;2022-12-16T07:43:40;0.80;99.90
2721;DHT22;1368;49.484;11.112;2022-12-16T07:46:24;0.80;99.90
2721;DHT22;1368;49.484;11.112;2022-12-16T07:49:09;0.90;99.90
2721;DHT22;1368;49.484;11.112;2022-12-16T07:51:53;1.10;99.90
2721;DHT22;1368;49.484;11.112;2022-12-16T07:54:37;1.30;99.90
2721;DHT22;1368;49.484;11.112;2022-12-16T07:57:22;1.20;99.90
2721;DHT22;1368;49.484;11.112;2022-12-16T08:00:07;1.10;99.90
2721;DHT22;1368;49.484;11.112;2022-12-16T08:02:54;1.20;99.90
2721;DHT22;1368;49.484;11.112;2022-12-16T08:05:38;1.10;99.90
2721;DHT22;1368;49.484;11.112;2022-12-16T08:08:22;1.10;99.90
2721;DHT22;1368;49.484;11.112;2022-12-16T08:11:07;1.20;99.90
2721;DHT22;1368;49.484;11.112;2022-12-16T08:13:51;1.20;99.90
2721;DHT22;1368;49.484;11.112;2022-12-16T08:16:35;1.10;99.90
2721;DHT22;1368;49.484;11.112;2022-12-16T08:19:19;1.30;99.90
2721;DHT22;1368;49.484;11.112;2022-12-16T08:22:04;1.30;99.90
2721;DHT22;1368;49.484;11.112;2022-12-16T08:24:48;1.40;99.90
2721;DHT22;1368;49.484;11.112;2022-12-16T08:27:32;1.40;99.90
2721;DHT22;1368;49.484;11.112;2022-12-16T08:30:16;1.40;99.90
2721;DHT22;1368;49.484;11.112;2022-12-16T08:33:00;1.40;99.90
2721;DHT22;1368;49.484;11.112;2022-12-16T08:35:44;1.50;99.90
2721;DHT22;1368;49.484;11.112;2022-12-16T08:38:29;1.70;99.90
2721;DHT22;1368;49.484;11.112;2022-12-16T08:41:13;1.90;99.90
2721;DHT22;1368;49.484;11.112;2022-12-16T08:43:57;1.90;99.90
2721;DHT22;1368;49.484;11.112;2022-12-16T08:46:41;2.00;99.90
2721;DHT22;1368;49.484;11.112;2022-12-16T08:49:26;2.20;99.90
2721;DHT22;1368;49.484;11.112;2022-12-16T08:52:10;2.40;99.90
2721;DHT22;1368;49.484;11.112;2022-12-16T08:54:54;2.60;99.90
2721;DHT22;1368;49.484;11.112;2022-12-16T08:57:39;2.60;99.90
2721;DHT22;1368;49.484;11.112;2022-12-16T09:00:23;2.50;99.90
2721;DHT22;1368;49.484;11.112;2022-12-16T09:03:07;2.70;99.90
2721;DHT22;1368;49.484;11.112;2022-12-16T09:05:57;2.80;99.90
2721;DHT22;1368;49.484;11.112;2022-12-16T09:08:41;3.00;99.90
2721;DHT22;1368;49.484;11.112;2022-12-16T09:11:25;3.00;99.90
2721;DHT22;1368;49.484;11.112;2022-12-16T09:14:09;2.90;99.90
2721;DHT22;1368;49.484;11.112;2022-12-16T09:16:53;2.90;99.90
2721;DHT22;1368;49.484;11.112;2022-12-16T09:19:38;3.10;99.90
2721;DHT22;1368;49.484;11.112;2022-12-16T09:22:22;3.30;99.90
2721;DHT22;1368;49.484;11.112;2022-12-16T09:25:06;3.30;99.90
2721;DHT22;1368;49.484;11.112;2022-12-16T09:27:50;3.50;99.90
2721;DHT22;1368;49.484;11.112;2022-12-16T09:30:36;3.40;99.90
2721;DHT22;1368;49.484;11.112;2022-12-16T09:33:20;3.50;99.90
2721;DHT22;1368;49.484;11.112;2022-12-16T09:36:05;3.60;99.90
2721;DHT22;1368;49.484;11.112;2022-12-16T09:38:49;3.60;99.90
2721;DHT22;1368;49.484;11.112;2022-12-16T09:41:50;3.50;99.90
2721;DHT22;1368;49.484;11.112;2022-12-16T09:44:51;3.20;99.90
2721;DHT22;1368;49.484;11.112;2022-12-16T09:50:29;3.30;99.90
2721;DHT22;1368;49.484;11.112;2022-12-16T09:53:17;3.50;99.90
2721;DHT22;1368;49.484;11.112;2022-12-16T09:56:04;3.30;99.90
2721;DHT22;1368;49.484;11.112;2022-12-16T09:58:59;3.00;99.90
2721;DHT22;1368;49.484;11.112;2022-12-16T10:01:44;2.90;99.90
2721;DHT22;1368;49.484;11.112;2022-12-16T10:04:29;2.50;99.90
2721;DHT22;1368;49.484;11.112;2022-12-16T10:07:17;2.40;99.90
2721;DHT22;1368;49.484;11.112;2022-12-16T10:10:14;2.20;99.90
2721;DHT22;1368;49.484;11.112;2022-12-16T10:16:25;2.60;99.90
2721;DHT22;1368;49.484;11.112;2022-12-16T10:25:51;3.00;99.90
2721;DHT22;1368;49.484;11.112;2022-12-16T10:28:46;3.20;99.90
2721;DHT22;1368;49.484;11.112;2022-12-16T10:31:31;3.10;99.90
2721;DHT22;1368;49.484;11.112;2022-12-16T10:34:20;2.90;99.90
2721;DHT22;1368;49.484;11.112;2022-12-16T10:40:16;3.30;99.90
2721;DHT22;1368;49.484;11.112;2022-12-16T10:43:05;2.90;99.90
2721;DHT22;1368;49.484;11.112;2022-12-16T10:45:55;2.70;99.90
2721;DHT22;1368;49.484;11.112;2022-12-16T10:48:40;2.20;99.90
2721;DHT22;1368;49.484;11.112;2022-12-16T10:51:28;1.90;99.90
2721;DHT22;1368;49.484;11.112;2022-12-16T10:54:22;1.50;99.90
2721;DHT22;1368;49.484;11.112;2022-12-16T10:57:27;1.60;99.90
2721;DHT22;1368;49.484;11.112;2022-12-16T11:00:18;1.60;99.90
2721;DHT22;1368;49.484;11.112;2022-12-16T11:03:18;1.50;99.90
2721;DHT22;1368;49.484;11.112;2022-12-16T11:06:02;1.80;99.90
2721;DHT22;1368;49.484;11.112;2022-12-16T11:08:47;1.60;99.90
2721;DHT22;1368;49.484;11.112;2022-12-16T11:11:31;1.60;99.90
2721;DHT22;1368;49.484;11.112;2022-12-16T11:14:27;1.60;99.90
2721;DHT22;1368;49.484;11.112;2022-12-16T11:17:23;1.40;99.90
2721;DHT22;1368;49.484;11.112;2022-12-16T11:20:22;1.60;99.90
2721;DHT22;1368;49.484;11.112;2022-12-16T11:23:21;1.90;99.90
2721;DHT22;1368;49.484;11.112;2022-12-16T11:26:11;2.00;99.90
2721;DHT22;1368;49.484;11.112;2022-12-16T11:34:49;2.20;99.90
2721;DHT22;1368;49.484;11.112;2022-12-16T11:37:34;2.40;99.90
2721;DHT22;1368;49.484;11.112;2022-12-16T11:40:21;2.20;99.90
2721;DHT22;1368;49.484;11.112;2022-12-16T11:43:05;2.00;99.90
2721;DHT22;1368;49.484;11.112;2022-12-16T11:45:51;1.80;99.90
2721;DHT22;1368;49.484;11.112;2022-12-16T11:48:37;1.60;99.90
2721;DHT22;1368;49.484;11.112;2022-12-16T11:51:24;1.70;99.90
2721;DHT22;1368;49.484;11.112;2022-12-16T11:54:25;1.50;99.90
2721;DHT22;1368;49.484;11.112;2022-12-16T11:57:20;1.50;99.90
2721;DHT22;1368;49.484;11.112;2022-12-16T12:00:09;1.50;99.90
2721;DHT22;1368;49.484;11.112;2022-12-16T12:03:11;1.30;99.90
2721;DHT22;1368;49.484;11.112;2022-12-16T12:09:05;1.30;99.90
2721;DHT22;1368;49.484;11.112;2022-12-16T12:11:55;1.00;99.90
2721;DHT22;1368;49.484;11.112;2022-12-16T12:23:28;1.40;99.90
2721;DHT22;1368;49.484;11.112;2022-12-16T12:26:20;1.10;99.90
2721;DHT22;1368;49.484;11.112;2022-12-16T12:32:40;1.10;99.90
2721;DHT22;1368;49.484;11.112;2022-12-16T12:36:00;1.00;99.90
2721;DHT22;1368;49.484;11.112;2022-12-16T12:51:50;1.00;99.90
2721;DHT22;1368;49.484;11.112;2022-12-16T12:54:51;1.30;99.90
2721;DHT22;1368;49.484;11.112;2022-12-16T12:57:38;1.40;99.90
2721;DHT22;1368;49.484;11.112;2022-12-16T13:00:24;1.40;99.90
2721;DHT22;1368;49.484;11.112;2022-12-16T13:03:14;1.10;99.90
2721;DHT22;1368;49.484;11.112;2022-12-16T13:06:00;0.70;99.90
2721;DHT22;1368;49.484;11.112;2022-12-16T13:12:18;1.20;99.90
2721;DHT22;1368;49.484;11.112;2022-12-16T13:20:53;0.60;99.90
2721;DHT22;1368;49.484;11.112;2022-12-16T13:23:43;0.80;99.90
2721;DHT22;1368;49.484;11.112;2022-12-16T13:26:29;1.00;99.90
2721;DHT22;1368;49.484;11.112;2022-12-16T13:29:32;0.90;99.90
2721;DHT22;1368;49.484;11.112;2022-12-16T13:32:23;1.10;99.90
2721;DHT22;1368;49.484;11.112;2022-12-16T13:38:02;1.10;99.90
2721;DHT22;1368;49.484;11.112;2022-12-16T13:40:59;1.40;99.90
2721;DHT22;1368;49.484;11.112;2022-12-16T13:43:57;1.40;99.90
2721;DHT22;1368;49.484;11.112;2022-12-16T13:46:44;1.10;99.90
2721;DHT22;1368;49.484;11.112;2022-12-16T13:52:21;0.70;99.90
2721;DHT22;1368;49.484;11.112;2022-12-16T13:55:15;0.60;99.90
2721;DHT22;1368;49.484;11.112;2022-12-16T13:58:07;0.60;99.90
2721;DHT22;1368;49.484;11.112;2022-12-16T14:00:58;0.70;99.90
2721;DHT22;1368;49.484;11.112;2022-12-16T14:03:48;0.70;99.90
2721;DHT22;1368;49.484;11.112;2022-12-16T14:06:36;0.60;99.90
2721;DHT22;1368;49.484;11.112;2022-12-16T14:09:36;0.40;99.90
2721;DHT22;1368;49.484;11.112;2022-12-16T14:15:35;0.50;99.90
2721;DHT22;1368;49.484;11.112;2022-12-16T14:21:46;0.40;99.90
2721;DHT22;1368;49.484;11.112;2022-12-16T14:24:33;0.00;99.90
2721;DHT22;1368;49.484;11.112;2022-12-16T14:27:20;0.10;99.90
2721;DHT22;1368;49.484;11.112;2022-12-16T14:30:18;0.10;99.90
2721;DHT22;1368;49.484;11.112;2022-12-16T14:33:34;0.20;99.90
2721;DHT22;1368;49.484;11.112;2022-12-16T14:36:26;0.40;99.90
2721;DHT22;1368;49.484;11.112;2022-12-16T14:39:22;0.40;99.90
2721;DHT22;1368;49.484;11.112;2022-12-16T14:42:18;0.10;99.90
2721;DHT22;1368;49.484;11.112;2022-12-16T14:45:04;0.30;99.90
2721;DHT22;1368;49.484;11.112;2022-12-16T14:47:48;0.20;99.90
2721;DHT22;1368;49.484;11.112;2022-12-16T14:50:32;-0.10;99.90
2721;DHT22;1368;49.484;11.112;2022-12-16T14:53:20;0.00;99.90
2721;DHT22;1368;49.484;11.112;2022-12-16T14:56:21;0.10;99.90
2721;DHT22;1368;49.484;11.112;2022-12-16T14:59:26;0.00;99.90
2721;DHT22;1368;49.484;11.112;2022-12-16T15:02:24;0.00;99.90
2721;DHT22;1368;49.484;11.112;2022-12-16T15:05:11;0.10;99.90
2721;DHT22;1368;49.484;11.112;2022-12-16T15:07:56;0.20;99.90
2721;DHT22;1368;49.484;11.112;2022-12-16T15:10:40;0.20;99.90
2721;DHT22;1368;49.484;11.112;2022-12-16T15:13:24;0.10;99.90
2721;DHT22;1368;49.484;11.112;2022-12-16T15:16:15;0.20;99.90
2721;DHT22;1368;49.484;11.112;2022-12-16T15:19:00;0.40;99.90
2721;DHT22;1368;49.484;11.112;2022-12-16T15:21:46;0.30;99.90
2721;DHT22;1368;49.484;11.112;2022-12-16T15:24:35;0.30;99.90
2721;DHT22;1368;49.484;11.112;2022-12-16T15:33:16;0.50;99.90
2721;DHT22;1368;49.484;11.112;2022-12-16T15:36:02;0.10;99.90
2721;DHT22;1368;49.484;11.112;2022-12-16T15:38:46;-0.10;99.90
2721;DHT22;1368;49.484;11.112;2022-12-16T15:41:33;-0.20;99.90
2721;DHT22;1368;49.484;11.112;2022-12-16T15:44:25;0.10;99.90
2721;DHT22;1368;49.484;11.112;2022-12-16T15:50:13;0.40;99.90
2721;DHT22;1368;49.484;11.112;2022-12-16T15:53:30;0.40;99.90
2721;DHT22;1368;49.484;11.112;2022-12-16T15:56:17;0.60;99.90
2721;DHT22;1368;49.484;11.112;2022-12-16T15:59:24;0.50;99.90
2721;DHT22;1368;49.484;11.112;2022-12-16T16:02:26;0.20;99.90
2721;DHT22;1368;49.484;11.112;2022-12-16T16:05:20;-0.10;99.90
2721;DHT22;1368;49.484;11.112;2022-12-16T16:08:05;-0.10;99.90
2721;DHT22;1368;49.484;11.112;2022-12-16T16:10:49;-0.10;99.90
2721;DHT22;1368;49.484;11.112;2022-12-16T16:13:33;0.00;99.90
2721;DHT22;1368;49.484;11.112;2022-12-16T16:16:18;0.00;99.90
2721;DHT22;1368;49.484;11.112;2022-12-16T16:19:02;-0.20;99.90
2721;DHT22;1368;49.484;11.112;2022-12-16T16:21:47;0.00;99.90
2721;DHT22;1368;49.484;11.112;2022-12-16T16:24:31;0.10;99.90
2721;DHT22;1368;49.484;11.112;2022-12-16T16:27:17;0.10;99.90
2721;DHT22;1368;49.484;11.112;2022-12-16T16:30:01;0.20;99.90
2721;DHT22;1368;49.484;11.112;2022-12-16T16:32:45;0.30;99.90
2721;DHT22;1368;49.484;11.112;2022-12-16T16:35:46;0.20;99.90
2721;DHT22;1368;49.484;11.112;2022-12-16T16:38:30;0.20;99.90
2721;DHT22;1368;49.484;11.112;2022-12-16T16:41:15;0.20;99.90
2721;DHT22;1368;49.484;11.112;2022-12-16T16:43:59;0.30;99.90
2721;DHT22;1368;49.484;11.112;2022-12-16T16:46:45;0.30;99.90
2721;DHT22;1368;49.484;11.112;2022-12-16T16:49:40;0.30;99.90
2721;DHT22;1368;49.484;11.112;2022-12-16T16:52:25;0.30;99.90
2721;DHT22;1368;49.484;11.112;2022-12-16T16:55:21;0.20;99.90
2721;DHT22;1368;49.484;11.112;2022-12-16T16:58:13;0.10;99.90
2721;DHT22;1368;49.484;11.112;2022-12-16T17:00:58;-0.10;99.90
2721;DHT22;1368;49.484;11.112;2022-12-16T17:03:42;-0.30;99.90
2721;DHT22;1368;49.484;11.112;2022-12-16T17:06:27;-0.50;99.90
2721;DHT22;1368;49.484;11.112;2022-12-16T17:09:11;-0.40;99.90
2721;DHT22;1368;49.484;11.112;2022-12-16T17:11:55;-0.50;99.90
2721;DHT22;1368;49.484;11.112;2022-12-16T17:14:53;-0.50;99.90
2721;DHT22;1368;49.484;11.112;2022-12-16T17:17:37;-0.50;99.90
2721;DHT22;1368;49.484;11.112;2022-12-16T17:20:22;-0.40;99.90
2721;DHT22;1368;49.484;11.112;2022-12-16T17:23:06;-0.40;99.90
2721;DHT22;1368;49.484;11.112;2022-12-16T17:25:50;-0.40;99.90
2721;DHT22;1368;49.484;11.112;2022-12-16T17:28:34;-0.50;99.90
2721;DHT22;1368;49.484;11.112;2022-12-16T17:31:18;-0.90;99.90
2721;DHT22;1368;49.484;11.112;2022-12-16T17:34:03;-0.90;99.90
2721;DHT22;1368;49.484;11.112;2022-12-16T17:36:47;-1.10;99.90
2721;DHT22;1368;49.484;11.112;2022-12-16T17:39:31;-1.20;99.90
2721;DHT22;1368;49.484;11.112;2022-12-16T17:42:15;-1.20;99.90
2721;DHT22;1368;49.484;11.112;2022-12-16T17:45:00;-1.20;99.90
2721;DHT22;1368;49.484;11.112;2022-12-16T17:47:44;-1.00;99.90
2721;DHT22;1368;49.484;11.112;2022-12-16T17:50:28;-1.10;99.90
2721;DHT22;1368;49.484;11.112;2022-12-16T17:53:13;-1.20;99.90
2721;DHT22;1368;49.484;11.112;2022-12-16T17:56:02;-1.10;99.90
2721;DHT22;1368;49.484;11.112;2022-12-16T17:58:46;-1.20;99.90
2721;DHT22;1368;49.484;11.112;2022-12-16T18:01:30;-1.20;99.90
2721;DHT22;1368;49.484;11.112;2022-12-16T18:04:15;-1.00;99.90
2721;DHT22;1368;49.484;11.112;2022-12-16T18:06:59;-0.90;99.90
2721;DHT22;1368;49.484;11.112;2022-12-16T18:09:43;-1.10;99.90
2721;DHT22;1368;49.484;11.112;2022-12-16T18:12:27;-1.10;99.90
2721;DHT22;1368;49.484;11.112;2022-12-16T18:15:11;-1.20;99.90
2721;DHT22;1368;49.484;11.112;2022-12-16T18:17:55;-1.50;99.90
2721;DHT22;1368;49.484;11.112;2022-12-16T18:20:39;-1.60;99.90
2721;DHT22;1368;49.484;11.112;2022-12-16T18:23:26;-1.40;99.90
2721;DHT22;1368;49.484;11.112;2022-12-16T18:26:11;-1.40;99.90
2721;DHT22;1368;49.484;11.112;2022-12-16T18:28:55;-1.30;99.90
2721;DHT22;1368;49.484;11.112;2022-12-16T18:31:39;-1.20;99.90
2721;DHT22;1368;49.484;11.112;2022-12-16T18:34:24;-1.20;99.90
2721;DHT22;1368;49.484;11.112;2022-12-16T18:37:10;-1.20;99.90
2721;DHT22;1368;49.484;11.112;2022-12-16T18:39:55;-1.30;99.90
2721;DHT22;1368;49.484;11.112;2022-12-16T18:42:39;-1.40;99.90
2721;DHT22;1368;49.484;11.112;2022-12-16T18:45:23;-1.50;99.90
2721;DHT22;1368;49.484;11.112;2022-12-16T18:48:08;-1.50;99.90
2721;DHT22;1368;49.484;11.112;2022-12-16T18:50:54;-1.70;99.90
2721;DHT22;1368;49.484;11.112;2022-12-16T18:53:38;-2.00;99.90
2721;DHT22;1368;49.484;11.112;2022-12-16T18:56:22;-2.00;99.90
2721;DHT22;1368;49.484;11.112;2022-12-16T18:59:07;-2.10;99.90
2721;DHT22;1368;49.484;11.112;2022-12-16T19:01:51;-2.20;99.90
2721;DHT22;1368;49.484;11.112;2022-12-16T19:04:35;-2.20;99.90
2721;DHT22;1368;49.484;11.112;2022-12-16T19:07:19;-2.40;99.90
2721;DHT22;1368;49.484;11.112;2022-12-16T19:10:05;-2.50;99.90
2721;DHT22;1368;49.484;11.112;2022-12-16T19:13:06;-2.60;99.90
2721;DHT22;1368;49.484;11.112;2022-12-16T19:15:55;-2.80;99.90
2721;DHT22;1368;49.484;11.112;2022-12-16T19:18:40;-2.90;99.90
2721;DHT22;1368;49.484;11.112;2022-12-16T19:21:24;-2.90;99.90